createdAt,value
2023-05-09T00:00:33.046Z,99791.78
2023-05-09T00:03:00.174Z,99787.56
2023-05-09T00:05:27.245Z,99788.69
2023-05-09T00:07:54.185Z,99790.47
2023-05-09T00:10:21.117Z,99789.16
2023-05-09T00:12:49.492Z,99786.91
2023-05-09T00:15:16.618Z,99786.25
2023-05-09T00:17:46.164Z,99795.50
2023-05-09T00:20:13.096Z,99791.72
2023-05-09T00:22:41.207Z,99799.16
2023-05-09T00:25:09.565Z,99811.75
2023-05-09T00:27:37.092Z,99813.84
2023-05-09T00:30:04.977Z,99807.94
2023-05-09T00:32:33.374Z,99815.72
2023-05-09T00:35:00.550Z,99809.19
2023-05-09T00:37:27.407Z,99809.69
2023-05-09T00:39:54.286Z,99806.94
2023-05-09T00:42:21.402Z,99799.22
2023-05-09T00:44:48.194Z,99800.19
2023-05-09T00:47:15.289Z,99812.41
2023-05-09T00:49:42.299Z,99809.97
2023-05-09T00:52:09.728Z,99813.66
2023-05-09T00:54:36.734Z,99815.59
2023-05-09T00:57:03.712Z,99818.69
2023-05-09T00:59:31.249Z,99825.63
2023-05-09T01:01:58.224Z,99839.97
2023-05-09T01:04:25.319Z,99834.47
2023-05-09T01:07:31.234Z,99834.59
2023-05-09T01:10:21.871Z,99836.53
2023-05-09T01:13:09.537Z,99821.03
2023-05-09T01:15:38.980Z,99833.50
2023-05-09T01:18:21.934Z,99835.13
2023-05-09T01:21:03.984Z,99834.88
2023-05-09T01:24:01.999Z,99842.28
2023-05-09T01:26:48.105Z,99838.66
2023-05-09T01:29:46.043Z,99837.84
2023-05-09T01:32:24.760Z,99837.53
2023-05-09T01:35:04.591Z,99840.59
2023-05-09T01:37:34.406Z,99832.94
2023-05-09T01:40:07.449Z,99837.44
2023-05-09T01:42:43.610Z,99831.03
2023-05-09T01:45:12.698Z,99839.91
2023-05-09T01:47:41.653Z,99840.13
2023-05-09T01:50:12.520Z,99841.53
2023-05-09T01:52:43.141Z,99837.66
2023-05-09T01:55:11.733Z,99833.56
2023-05-09T01:57:40.367Z,99848.25
2023-05-09T02:00:10.955Z,99844.59
2023-05-09T02:02:40.868Z,99825.53
2023-05-09T02:05:11.740Z,99837.94
2023-05-09T02:07:41.407Z,99850.00
2023-05-09T02:10:10.001Z,99839.28
2023-05-09T02:12:38.056Z,99835.41
2023-05-09T02:15:06.600Z,99843.34
2023-05-09T02:17:33.666Z,99845.81
2023-05-09T02:20:00.576Z,99845.72
2023-05-09T02:22:28.103Z,99854.81
2023-05-09T02:24:55.414Z,99858.09
2023-05-09T02:27:22.853Z,99841.38
2023-05-09T02:29:58.570Z,99838.94
2023-05-09T02:32:28.956Z,99820.44
2023-05-09T02:34:58.360Z,99845.25
2023-05-09T02:37:26.305Z,99847.59
2023-05-09T02:39:53.344Z,99836.06
2023-05-09T02:42:26.572Z,99849.53
2023-05-09T02:44:53.826Z,99846.47
2023-05-09T02:47:21.195Z,99858.50
2023-05-09T02:49:48.342Z,99855.31
2023-05-09T02:52:15.802Z,99851.13
2023-05-09T02:54:42.753Z,99858.28
2023-05-09T02:57:10.087Z,99854.41
2023-05-09T02:59:36.985Z,99861.13
2023-05-09T03:02:03.917Z,99867.06
2023-05-09T03:04:31.610Z,99860.53
2023-05-09T03:06:59.391Z,99860.53
2023-05-09T03:09:31.264Z,99879.28
2023-05-09T03:11:58.190Z,99879.38
2023-05-09T03:15:10.431Z,99879.97
2023-05-09T03:17:40.168Z,99881.00
2023-05-09T03:20:07.987Z,99888.16
2023-05-09T03:22:35.238Z,99888.88
2023-05-09T03:25:04.117Z,99891.31
2023-05-09T03:27:31.102Z,99884.06
2023-05-09T03:29:58.533Z,99894.06
2023-05-09T03:32:27.270Z,99913.25
2023-05-09T03:34:54.856Z,99908.56
2023-05-09T03:37:22.121Z,99929.59
2023-05-09T03:39:49.143Z,99919.78
2023-05-09T03:42:16.417Z,99915.94
2023-05-09T03:44:46.758Z,99925.72
2023-05-09T03:47:13.720Z,99934.81
2023-05-09T03:49:41.592Z,99917.03
2023-05-09T03:52:10.078Z,99930.13
2023-05-09T03:54:37.113Z,99924.00
2023-05-09T03:57:04.391Z,99926.16
2023-05-09T03:59:31.501Z,99945.63
2023-05-09T04:01:58.792Z,99942.06
2023-05-09T04:04:27.579Z,99937.84
2023-05-09T04:06:55.300Z,99939.50
2023-05-09T04:09:22.690Z,99938.19
2023-05-09T04:11:50.429Z,99950.63
2023-05-09T04:14:18.338Z,99950.34
2023-05-09T04:16:45.907Z,99942.06
2023-05-09T04:19:13.039Z,99944.09
2023-05-09T04:21:40.059Z,99953.56
2023-05-09T04:24:07.432Z,99956.84
2023-05-09T04:26:41.924Z,99953.78
2023-05-09T04:29:12.551Z,99958.06
2023-05-09T04:31:40.261Z,99945.00
2023-05-09T04:34:09.848Z,99962.84
2023-05-09T04:36:38.185Z,99952.16
2023-05-09T04:39:05.440Z,99951.31
2023-05-09T04:41:34.340Z,99954.28
2023-05-09T04:44:02.031Z,99961.13
2023-05-09T04:46:29.663Z,99966.34
2023-05-09T04:48:57.487Z,99958.78
2023-05-09T04:51:24.353Z,99964.19
2023-05-09T04:53:51.938Z,99966.94
2023-05-09T04:56:23.572Z,99974.69
2023-05-09T04:58:51.481Z,99980.63
2023-05-09T05:01:19.398Z,99961.66
2023-05-09T05:03:46.585Z,99964.59
2023-05-09T05:06:13.684Z,99965.09
2023-05-09T05:08:42.404Z,99966.44
2023-05-09T05:11:09.866Z,99966.34
2023-05-09T05:13:36.721Z,99952.06
2023-05-09T05:16:03.839Z,99961.13
2023-05-09T05:18:31.087Z,99971.66
2023-05-09T05:20:58.588Z,99968.69
2023-05-09T05:23:25.816Z,99979.22
2023-05-09T05:25:54.543Z,99958.69
2023-05-09T05:28:22.466Z,99973.59
2023-05-09T05:30:49.414Z,99972.50
2023-05-09T05:33:16.276Z,99989.34
2023-05-09T05:35:43.722Z,99979.44
2023-05-09T05:38:10.851Z,99985.97
2023-05-09T05:40:37.852Z,99995.16
2023-05-09T05:43:06.980Z,99989.94
2023-05-09T05:45:36.063Z,99998.31
2023-05-09T05:48:05.608Z,100002.00
2023-05-09T05:50:32.986Z,99994.25
2023-05-09T05:52:59.959Z,99996.91
2023-05-09T05:55:27.245Z,99983.13
2023-05-09T05:57:54.337Z,99996.19
2023-05-09T06:00:21.620Z,99999.03
2023-05-09T06:02:55.245Z,100001.50
2023-05-09T06:05:28.194Z,99999.97
2023-05-09T06:07:55.289Z,99993.44
2023-05-09T06:10:22.266Z,100013.16
2023-05-09T06:12:49.560Z,100008.06
2023-05-09T06:15:18.054Z,99995.94
2023-05-09T06:17:48.256Z,99997.84
2023-05-09T06:20:15.182Z,99993.44
2023-05-09T06:22:42.067Z,99991.69
2023-05-09T06:25:10.640Z,99994.25
2023-05-09T06:27:38.535Z,100001.59
2023-05-09T06:30:24.005Z,99998.44
2023-05-09T06:32:53.410Z,99999.56
2023-05-09T06:35:20.668Z,100004.34
2023-05-09T06:37:48.801Z,100003.41
2023-05-09T06:40:16.778Z,99986.66
2023-05-09T06:42:44.302Z,99997.69
2023-05-09T06:45:11.944Z,99991.53
2023-05-09T06:47:38.947Z,100005.72
2023-05-09T06:50:06.586Z,99988.84
2023-05-09T06:52:33.543Z,99993.13
2023-05-09T06:55:00.552Z,99991.69
2023-05-09T06:57:27.529Z,99996.50
2023-05-09T06:59:54.446Z,99989.59
2023-05-09T07:02:21.194Z,99990.25
2023-05-09T07:04:48.334Z,99993.00
2023-05-09T07:07:16.357Z,100000.16
2023-05-09T07:09:43.227Z,99993.13
2023-05-09T07:12:10.300Z,99991.81
2023-05-09T07:14:37.189Z,99997.47
2023-05-09T07:17:21.213Z,100013.97
2023-05-09T07:19:49.451Z,99988.78
2023-05-09T07:22:16.535Z,100010.84
2023-05-09T07:24:44.637Z,100008.97
2023-05-09T07:27:11.643Z,100011.13
2023-05-09T07:29:38.784Z,100005.91
2023-05-09T07:32:05.920Z,99994.81
2023-05-09T07:34:32.991Z,100017.38
2023-05-09T07:36:59.870Z,100001.38
2023-05-09T07:39:26.829Z,100001.69
2023-05-09T07:41:53.652Z,99999.59
2023-05-09T07:44:20.641Z,100003.88
2023-05-09T07:46:47.471Z,99998.72
2023-05-09T07:49:14.390Z,99999.41
2023-05-09T07:51:41.873Z,100002.66
2023-05-09T07:54:10.240Z,99985.44
2023-05-09T07:56:37.268Z,99985.75
2023-05-09T07:59:04.248Z,99995.88
2023-05-09T08:01:31.342Z,99999.44
2023-05-09T08:03:58.332Z,99989.91
2023-05-09T08:06:26.338Z,100003.72
2023-05-09T08:08:53.350Z,99993.91
2023-05-09T08:11:20.331Z,100008.34
2023-05-09T08:13:48.263Z,100012.41
2023-05-09T08:16:17.613Z,100014.50
2023-05-09T08:18:45.106Z,100011.59
2023-05-09T08:21:12.261Z,100015.19
2023-05-09T08:23:40.673Z,100006.41
2023-05-09T08:26:07.650Z,100009.59
2023-05-09T08:28:34.721Z,100016.38
2023-05-09T08:31:01.863Z,100010.41
2023-05-09T08:33:28.817Z,100010.59
2023-05-09T08:35:56.493Z,100001.88
2023-05-09T08:38:24.518Z,100011.34
2023-05-09T08:40:51.622Z,100013.22
2023-05-09T08:43:23.285Z,100001.47
2023-05-09T08:45:58.152Z,100000.94
2023-05-09T08:48:27.094Z,100011.53
2023-05-09T08:50:56.168Z,99999.69
2023-05-09T08:53:23.280Z,100005.25
2023-05-09T08:55:51.060Z,99993.53
2023-05-09T08:58:19.844Z,100005.28
2023-05-09T09:00:47.228Z,100012.63
2023-05-09T09:03:14.653Z,99997.97
2023-05-09T09:05:43.446Z,100004.16
2023-05-09T09:08:11.924Z,100003.69
2023-05-09T09:10:42.021Z,100008.72
2023-05-09T09:13:12.232Z,100008.03
2023-05-09T09:15:41.717Z,100007.72
2023-05-09T09:18:10.487Z,100009.88
2023-05-09T09:20:45.073Z,100018.66
2023-05-09T09:23:18.682Z,100014.59
2023-05-09T09:25:48.884Z,100008.75
2023-05-09T09:28:15.868Z,99995.88
2023-05-09T09:30:49.090Z,100006.25
2023-05-09T09:33:21.478Z,100014.72
2023-05-09T09:35:52.756Z,100001.53
2023-05-09T09:38:21.292Z,100004.59
2023-05-09T09:40:52.018Z,100011.78
2023-05-09T09:43:19.574Z,100001.03
2023-05-09T09:45:53.483Z,100001.31
2023-05-09T09:48:27.845Z,100005.25
2023-05-09T09:50:56.984Z,100005.03
2023-05-09T09:53:26.680Z,100007.00
2023-05-09T09:55:53.928Z,99989.09
2023-05-09T09:58:25.218Z,99995.91
2023-05-09T10:01:08.289Z,99991.97
2023-05-09T10:03:43.067Z,99986.91
2023-05-09T10:06:14.776Z,99980.06
2023-05-09T10:08:43.180Z,99998.31
2023-05-09T10:11:11.000Z,99995.00
2023-05-09T10:13:38.928Z,99992.47
2023-05-09T10:16:08.133Z,99995.66
2023-05-09T10:18:35.850Z,99993.09
2023-05-09T10:21:05.187Z,99981.63
2023-05-09T10:23:37.123Z,99984.00
2023-05-09T10:26:19.404Z,99998.94
2023-05-09T10:28:49.551Z,99988.16
2023-05-09T10:31:23.923Z,99983.41
2023-05-09T10:33:51.218Z,99982.78
2023-05-09T10:36:23.268Z,100002.56
2023-05-09T10:38:54.054Z,99989.72
2023-05-09T10:41:22.314Z,99988.97
2023-05-09T10:43:49.417Z,100001.84
2023-05-09T10:46:17.762Z,99990.78
2023-05-09T10:48:45.528Z,99994.38
2023-05-09T10:51:13.286Z,99996.34
2023-05-09T10:53:47.891Z,99997.00
2023-05-09T10:56:24.511Z,99998.63
2023-05-09T10:58:51.457Z,99990.16
2023-05-09T11:01:39.545Z,99989.09
2023-05-09T11:04:14.728Z,99978.03
2023-05-09T11:06:45.691Z,100006.84
2023-05-09T11:09:28.889Z,99995.44
2023-05-09T11:12:07.344Z,99989.91
2023-05-09T11:14:45.769Z,99993.31
2023-05-09T11:17:12.681Z,99998.06
2023-05-09T11:19:45.595Z,99992.66
2023-05-09T11:22:27.956Z,99985.50
2023-05-09T11:25:13.263Z,99986.31
2023-05-09T11:27:48.784Z,99985.69
2023-05-09T11:30:20.675Z,99986.63
2023-05-09T11:32:52.277Z,99978.97
2023-05-09T11:35:23.873Z,99962.88
2023-05-09T11:37:53.019Z,99973.78
2023-05-09T11:40:21.859Z,99975.13
2023-05-09T11:42:50.930Z,99977.28
2023-05-09T11:45:18.363Z,99975.81
2023-05-09T11:47:47.462Z,99984.63
2023-05-09T11:50:16.434Z,99975.13
2023-05-09T11:52:43.553Z,99974.78
2023-05-09T11:55:15.956Z,99978.19
2023-05-09T11:57:48.916Z,99976.72
2023-05-09T12:00:17.650Z,99965.47
2023-05-09T12:02:46.187Z,99967.44
2023-05-09T12:05:15.749Z,99946.44
2023-05-09T12:07:43.228Z,99963.72
2023-05-09T12:10:12.940Z,99962.44
2023-05-09T12:12:48.009Z,99960.34
2023-05-09T12:15:15.590Z,99965.03
2023-05-09T12:17:47.352Z,99960.63
2023-05-09T12:20:15.905Z,99963.44
2023-05-09T12:22:43.881Z,99960.94
2023-05-09T12:25:12.269Z,99948.88
2023-05-09T12:27:41.175Z,99955.63
2023-05-09T12:30:10.932Z,99952.03
2023-05-09T12:32:40.302Z,99956.09
2023-05-09T12:35:10.379Z,99947.47
2023-05-09T12:37:37.985Z,99949.91
2023-05-09T12:40:06.743Z,99952.69
2023-05-09T12:42:35.195Z,99944.88
2023-05-09T12:45:03.480Z,99945.31
2023-05-09T12:47:31.893Z,99940.25
2023-05-09T12:50:00.606Z,99935.88
2023-05-09T12:52:35.365Z,99929.50
2023-05-09T12:55:07.703Z,99919.72
2023-05-09T12:57:34.800Z,99920.56
2023-05-09T13:00:04.274Z,99924.63
2023-05-09T13:02:39.215Z,99925.28
2023-05-09T13:05:15.956Z,99926.44
2023-05-09T13:07:44.218Z,99935.91
2023-05-09T13:10:16.283Z,99925.00
2023-05-09T13:12:48.425Z,99914.56
2023-05-09T13:15:17.319Z,99915.84
2023-05-09T13:17:44.395Z,99920.19
2023-05-09T13:20:11.485Z,99919.53
2023-05-09T13:22:38.492Z,99914.13
2023-05-09T13:25:06.272Z,99901.09
2023-05-09T13:27:34.730Z,99913.66
2023-05-09T13:30:01.819Z,99902.88
2023-05-09T13:32:28.811Z,99908.56
2023-05-09T13:34:55.904Z,99903.97
2023-05-09T13:37:22.976Z,99900.88
2023-05-09T13:39:50.051Z,99911.75
2023-05-09T13:42:19.010Z,99909.63
2023-05-09T13:44:46.279Z,99900.00
2023-05-09T13:47:13.059Z,99895.97
2023-05-09T13:49:40.028Z,99903.00
2023-05-09T13:52:06.938Z,99900.44
2023-05-09T13:54:37.098Z,99890.03
2023-05-09T13:57:05.262Z,99894.19
2023-05-09T13:59:32.565Z,99893.53
2023-05-09T14:02:01.153Z,99882.31
2023-05-09T14:04:29.338Z,99893.56
2023-05-09T14:06:56.653Z,99895.50
2023-05-09T14:09:23.709Z,99895.03
2023-05-09T14:11:51.717Z,99904.28
2023-05-09T14:14:22.964Z,99893.19
2023-05-09T14:16:50.466Z,99897.09
2023-05-09T14:19:17.531Z,99895.97
2023-05-09T14:21:47.111Z,99898.25
2023-05-09T14:24:16.150Z,99910.63
2023-05-09T14:26:43.996Z,99906.59
2023-05-09T14:29:11.269Z,99913.88
2023-05-09T14:31:38.562Z,99903.34
2023-05-09T14:34:06.212Z,99902.66
2023-05-09T14:36:33.579Z,99904.94
2023-05-09T14:39:00.594Z,99901.84
2023-05-09T14:41:27.526Z,99902.31
2023-05-09T14:43:54.525Z,99907.38
2023-05-09T14:46:21.703Z,99902.00
2023-05-09T14:48:48.640Z,99901.66
2023-05-09T14:51:15.422Z,99901.66
2023-05-09T14:53:42.641Z,99912.72
2023-05-09T14:56:13.209Z,99904.59
2023-05-09T14:58:40.278Z,99903.94
2023-05-09T15:01:07.382Z,99900.00
2023-05-09T15:03:35.227Z,99898.22
2023-05-09T15:06:02.418Z,99899.53
2023-05-09T15:08:29.556Z,99905.88
2023-05-09T15:10:57.764Z,99900.19
2023-05-09T15:13:24.737Z,99892.19
2023-05-09T15:15:51.686Z,99888.63
2023-05-09T15:18:20.177Z,99886.84
2023-05-09T15:20:47.207Z,99878.06
2023-05-09T15:23:14.084Z,99894.47
2023-05-09T15:25:42.734Z,99889.28
2023-05-09T15:28:09.669Z,99882.28
2023-05-09T15:30:39.027Z,99889.13
2023-05-09T15:33:06.456Z,99890.09
2023-05-09T15:35:33.465Z,99887.16
2023-05-09T15:38:00.615Z,99892.34
2023-05-09T15:40:28.285Z,99888.63
2023-05-09T15:42:55.169Z,99895.78
2023-05-09T15:45:22.296Z,99897.22
2023-05-09T15:47:51.172Z,99888.09
2023-05-09T15:50:18.395Z,99879.78
2023-05-09T15:52:45.760Z,99889.88
2023-05-09T15:55:13.230Z,99887.28
2023-05-09T15:57:40.435Z,99903.22
2023-05-09T16:00:07.757Z,99895.06
2023-05-09T16:02:39.598Z,99893.63
2023-05-09T16:05:06.915Z,99894.25
2023-05-09T16:07:35.754Z,99900.44
2023-05-09T16:10:04.536Z,99902.06
2023-05-09T16:12:32.993Z,99899.44
2023-05-09T16:15:00.806Z,99909.00
2023-05-09T16:17:28.398Z,99892.75
2023-05-09T16:19:55.765Z,99891.59
2023-05-09T16:22:22.820Z,99890.63
2023-05-09T16:24:49.750Z,99892.56
2023-05-09T16:27:17.490Z,99888.81
2023-05-09T16:29:44.778Z,99897.91
2023-05-09T16:32:11.809Z,99893.66
2023-05-09T16:34:52.640Z,99897.56
2023-05-09T16:37:19.735Z,99891.78
2023-05-09T16:39:50.145Z,99906.66
2023-05-09T16:42:17.369Z,99911.38
2023-05-09T16:44:44.285Z,99902.94
2023-05-09T16:47:11.604Z,99903.94
2023-05-09T16:49:38.396Z,99905.97
2023-05-09T16:52:05.989Z,99902.50
2023-05-09T16:54:34.654Z,99920.41
2023-05-09T16:57:38.348Z,99915.00
2023-05-09T17:00:07.917Z,99913.03
2023-05-09T17:02:36.726Z,99924.13
2023-05-09T17:05:04.562Z,99927.50
2023-05-09T17:07:32.873Z,99930.09
2023-05-09T17:10:02.746Z,99924.84
2023-05-09T17:12:30.395Z,99924.84
2023-05-09T17:14:57.374Z,99911.97
2023-05-09T17:17:24.471Z,99918.69
2023-05-09T17:19:51.662Z,99932.00
2023-05-09T17:22:19.888Z,99929.22
2023-05-09T17:24:47.364Z,99933.44
2023-05-09T17:27:15.252Z,99928.91
2023-05-09T17:29:44.674Z,99925.47
2023-05-09T17:32:11.748Z,99930.97
2023-05-09T17:34:39.099Z,99929.78
2023-05-09T17:37:07.389Z,99932.00
2023-05-09T17:39:45.958Z,99931.16
2023-05-09T17:42:13.464Z,99929.72
2023-05-09T17:44:42.504Z,99929.09
2023-05-09T17:47:14.292Z,99930.53
2023-05-09T17:49:41.372Z,99928.47
2023-05-09T17:52:15.352Z,99942.28
2023-05-09T17:54:44.904Z,99929.34
2023-05-09T17:57:12.048Z,99938.63
2023-05-09T17:59:42.097Z,99948.25
2023-05-09T18:02:09.352Z,99943.66
2023-05-09T18:04:37.090Z,99957.22
2023-05-09T18:07:04.185Z,99956.03
2023-05-09T18:09:31.944Z,99959.97
2023-05-09T18:11:59.238Z,99959.78
2023-05-09T18:14:26.079Z,99959.97
2023-05-09T18:16:53.119Z,99953.59
2023-05-09T18:19:20.175Z,99955.53
2023-05-09T18:21:47.195Z,99949.94
2023-05-09T18:24:16.896Z,99963.00
2023-05-09T18:26:46.094Z,99948.00
2023-05-09T18:29:13.649Z,99948.31
2023-05-09T18:31:41.578Z,99968.03
2023-05-09T18:34:16.864Z,99974.38
2023-05-09T18:37:47.679Z,99971.09
2023-05-09T18:39:49.357Z,99955.41
2023-05-09T18:42:16.562Z,99973.78
2023-05-09T18:44:43.707Z,99971.16
2023-05-09T18:47:10.760Z,99962.19
2023-05-09T18:49:38.967Z,99966.25
2023-05-09T18:52:06.161Z,99965.09
2023-05-09T18:54:33.182Z,99962.66
2023-05-09T18:56:59.960Z,99978.44
2023-05-09T18:59:27.274Z,99964.09
2023-05-09T19:01:54.365Z,99980.38
2023-05-09T19:04:22.374Z,99970.41
2023-05-09T19:06:49.569Z,99985.91
2023-05-09T19:09:16.667Z,99966.66
2023-05-09T19:11:43.838Z,99978.81
2023-05-09T19:14:10.882Z,99990.38
2023-05-09T19:16:37.704Z,99985.34
2023-05-09T19:19:04.920Z,99978.69
2023-05-09T19:21:31.935Z,99974.94
2023-05-09T19:23:58.891Z,99985.97
2023-05-09T19:26:25.899Z,99980.47
2023-05-09T19:28:53.689Z,99985.09
2023-05-09T19:31:23.391Z,99984.16
2023-05-09T19:36:56.551Z,99966.31
2023-05-09T19:39:23.347Z,99988.28
2023-05-09T19:41:50.326Z,99976.72
2023-05-09T19:44:17.422Z,99982.94
2023-05-09T19:46:44.413Z,99976.91
2023-05-09T19:49:12.142Z,99974.34
2023-05-09T19:51:39.289Z,99988.22
2023-05-09T19:54:06.611Z,99979.56
2023-05-09T19:56:33.512Z,99977.34
2023-05-09T19:59:00.537Z,99974.69
2023-05-09T20:01:27.429Z,99963.19
2023-05-09T20:03:54.457Z,99982.06
2023-05-09T20:06:21.571Z,99972.97
2023-05-09T20:08:48.820Z,99965.16
2023-05-09T20:11:15.807Z,99976.19
2023-05-09T20:13:43.191Z,99977.09
2023-05-09T20:16:10.234Z,99960.50
2023-05-09T20:18:37.182Z,99967.75
2023-05-09T20:21:09.705Z,99970.28
2023-05-09T20:23:37.120Z,99957.41
2023-05-09T20:26:04.006Z,99964.47
2023-05-09T20:28:31.086Z,99965.16
2023-05-09T20:30:58.380Z,99968.00
2023-05-09T20:33:25.148Z,99941.25
2023-05-09T20:35:52.061Z,99970.25
2023-05-09T20:38:19.640Z,99962.81
2023-05-09T20:40:47.295Z,99973.31
2023-05-09T20:43:14.144Z,99967.06
2023-05-09T20:45:41.111Z,99972.16
2023-05-09T20:48:08.143Z,99962.97
2023-05-09T20:50:35.235Z,99960.94
2023-05-09T20:53:02.112Z,99962.03
2023-05-09T20:55:29.013Z,99966.84
2023-05-09T20:57:55.921Z,99964.19
2023-05-09T21:00:22.704Z,99960.50
2023-05-09T21:02:50.851Z,99959.47
2023-05-09T21:05:17.708Z,99963.34
2023-05-09T21:07:44.589Z,99961.78
2023-05-09T21:10:11.887Z,99958.53
2023-05-09T21:12:38.818Z,99969.63
2023-05-09T21:15:06.445Z,99958.91
2023-05-09T21:17:33.456Z,99962.84
2023-05-09T21:20:00.605Z,99965.47
2023-05-09T21:22:27.638Z,99965.25
2023-05-09T21:24:54.544Z,99961.16
2023-05-09T21:27:21.521Z,99949.63
2023-05-09T21:29:49.531Z,99957.28
2023-05-09T21:32:19.640Z,99950.97
2023-05-09T21:34:47.984Z,99944.72
2023-05-09T21:37:15.304Z,99944.22
2023-05-09T21:39:42.289Z,99931.28
2023-05-09T21:42:09.209Z,99940.13
2023-05-09T21:44:37.700Z,99950.84
2023-05-09T21:47:04.819Z,99948.59
2023-05-09T21:49:31.786Z,99939.31
2023-05-09T21:51:58.803Z,99943.69
2023-05-09T21:54:25.604Z,99929.69
2023-05-09T21:56:52.578Z,99942.75
2023-05-09T21:59:20.887Z,99941.22
2023-05-09T22:01:48.727Z,99939.88
2023-05-09T22:04:15.981Z,99932.34
2023-05-09T22:06:43.261Z,99937.41
2023-05-09T22:09:10.439Z,99942.91
2023-05-09T22:11:37.830Z,99932.03
2023-05-09T22:14:04.817Z,99934.50
2023-05-09T22:16:31.746Z,99937.69
2023-05-09T22:18:58.648Z,99936.03
2023-05-09T22:21:25.626Z,99940.94
2023-05-09T22:23:52.625Z,99929.44
2023-05-09T22:26:19.651Z,99928.47
2023-05-09T22:28:46.436Z,99921.47
2023-05-09T22:31:13.438Z,99928.06
2023-05-09T22:33:40.656Z,99928.50
2023-05-09T22:36:08.876Z,99920.47
2023-05-09T22:38:35.835Z,99923.50
2023-05-09T22:41:02.866Z,99918.97
2023-05-09T22:43:38.595Z,99906.16
2023-05-09T22:46:06.130Z,99925.50
2023-05-09T22:48:33.102Z,99923.13
2023-05-09T22:50:59.940Z,99913.81
2023-05-09T22:53:28.189Z,99911.13
2023-05-09T22:55:55.157Z,99904.94
2023-05-09T22:58:22.931Z,99909.84
2023-05-09T23:00:50.023Z,99922.69
2023-05-09T23:03:17.466Z,99902.47
2023-05-09T23:05:44.521Z,99903.06
2023-05-09T23:08:11.484Z,99898.44
2023-05-09T23:10:38.623Z,99899.03
2023-05-09T23:13:05.493Z,99900.38
2023-05-09T23:15:32.645Z,99901.44
2023-05-09T23:17:59.763Z,99899.22
2023-05-09T23:20:26.677Z,99897.53
2023-05-09T23:22:53.676Z,99890.91
2023-05-09T23:25:20.692Z,99897.97
2023-05-09T23:27:47.600Z,99889.22
2023-05-09T23:30:14.680Z,99885.41
2023-05-09T23:32:41.936Z,99886.94
2023-05-09T23:35:09.168Z,99852.00
2023-05-09T23:37:36.035Z,99863.47
2023-05-09T23:40:04.239Z,99877.59
2023-05-09T23:42:31.646Z,99877.94
2023-05-09T23:44:59.719Z,99868.94
2023-05-09T23:47:26.894Z,99876.59
2023-05-09T23:49:53.927Z,99881.81
2023-05-09T23:52:20.912Z,99880.88
2023-05-09T23:54:47.665Z,99864.44
2023-05-09T23:57:14.661Z,99871.88
2023-05-09T23:59:42.618Z,99869.66
